Sao Martinho, Brazil
Current Conditions -  °F | °C
As of 9:00 AM on Monday 20 Oct 2014 (Local Time) from SBFL Reporting Station
Broken Clouds Broken Clouds  
Wind Chill: 72°   Ceiling: 10000
Heat Index: 72°   Visibility: 6mi
Dew Point: 41°   Wind: 9mph
Humidity: 33%   Direction: 200°SSW
Pressure: 30.06"   Gusts: NA
Location:  28.16°S, 48.98°W
Report Text: SBFL 201200Z 20008KT 9999 FEW030 BKN100 22/05 Q1018
Loading
Personal Weather Stations






























Interactive Weather Map
Tropical Storm Tracking
New forecast layout! Learn more

10-Day Weather Forecast

Advertisements
Track Severe Weather on mobile